Time;durP1;ratioP1;P1;durP2;ratioP2;P2;SDS_P1;SDS_P2;PMS_P1;PMS_P2;Temp;Humidity;BMP_temperature;BMP_pressure;BME280_temperature;BME280_humidity;BME280_pressure;Samples;Min_cycle;Max_cycle;Signal;HPM_P1;HPM_P2
2021/06/16 00:00:27;;;;;;;1.20;1.10;;;25.40;72.60;;;;;;4973655;28;20814;-93
2021/06/16 00:02:55;;;;;;;1.10;1.00;;;25.40;72.60;;;;;;4999462;28;20529;-93
2021/06/16 00:05:28;;;;;;;1.57;1.07;;;25.40;72.60;;;;;;4999523;28;20529;-95
2021/06/16 00:07:55;;;;;;;1.23;1.00;;;25.40;72.60;;;;;;4999092;28;20462;-95
2021/06/16 00:10:27;;;;;;;1.37;1.10;;;25.40;72.60;;;;;;4998893;28;20510;-93
2021/06/16 00:12:53;;;;;;;1.00;0.80;;;25.40;72.60;;;;;;4999593;28;20551;-95
2021/06/16 00:15:25;;;;;;;1.30;1.07;;;25.40;72.50;;;;;;4999359;28;20966;-95
2021/06/16 00:17:52;;;;;;;1.13;0.93;;;25.40;72.50;;;;;;4999764;28;20929;-93
2021/06/16 00:20:20;;;;;;;1.33;1.17;;;25.40;72.50;;;;;;4999594;28;20442;-93
2021/06/16 00:22:47;;;;;;;1.10;1.00;;;25.40;72.60;;;;;;5000177;28;20537;-95
2021/06/16 00:25:14;;;;;;;1.20;1.10;;;25.40;72.50;;;;;;5001234;28;20546;-93
2021/06/16 00:27:41;;;;;;;1.10;0.90;;;25.40;72.60;;;;;;4999494;28;20473;-94
2021/06/16 00:30:10;;;;;;;1.00;0.80;;;25.40;72.60;;;;;;4998300;28;20571;-95
2021/06/16 00:32:38;;;;;;;1.10;1.00;;;25.40;72.50;;;;;;4998136;28;20481;-93
2021/06/16 00:35:06;;;;;;;1.10;1.00;;;25.40;72.60;;;;;;4998016;28;20534;-93
2021/06/16 00:37:35;;;;;;;1.00;0.90;;;25.40;72.60;;;;;;4998522;28;20556;-93
2021/06/16 00:40:03;;;;;;;1.17;0.97;;;25.40;72.60;;;;;;4997816;28;20500;-92
2021/06/16 00:42:30;;;;;;;1.10;1.00;;;25.40;72.60;;;;;;4997854;28;20459;-94
2021/06/16 00:44:57;;;;;;;1.00;0.90;;;25.40;72.60;;;;;;4997846;28;20852;-95
2021/06/16 00:47:24;;;;;;;1.10;0.90;;;25.40;72.50;;;;;;4998097;28;20544;-94
2021/06/16 00:49:51;;;;;;;1.10;0.90;;;25.40;72.50;;;;;;4997672;28;20550;-93
2021/06/16 00:52:18;;;;;;;1.10;1.00;;;25.40;72.50;;;;;;4997989;28;20462;-93
2021/06/16 00:54:47;;;;;;;1.10;0.90;;;25.40;72.40;;;;;;4996961;28;20485;-93
2021/06/16 00:57:13;;;;;;;2.03;1.00;;;25.40;72.40;;;;;;4997675;28;20948;-94
2021/06/16 00:59:51;;;;;;;1.20;1.00;;;25.40;72.40;;;;;;4996175;28;20465;-93
2021/06/16 01:02:20;;;;;;;1.23;0.97;;;25.40;72.40;;;;;;4977794;28;20455;-95
2021/06/16 01:04:49;;;;;;;1.20;1.10;;;25.40;72.40;;;;;;4977918;28;20571;-95
2021/06/16 01:07:17;;;;;;;1.20;1.00;;;25.40;72.40;;;;;;4977761;28;20465;-93
2021/06/16 01:09:53;;;;;;;1.10;0.90;;;25.40;72.40;;;;;;4977719;28;20578;-95
2021/06/16 01:12:24;;;;;;;1.10;1.00;;;25.40;72.30;;;;;;4978418;28;20444;-94
2021/06/16 01:14:54;;;;;;;1.30;0.93;;;25.40;72.30;;;;;;4977432;28;20449;-95
2021/06/16 01:17:24;;;;;;;1.40;0.90;;;25.40;72.40;;;;;;4978304;28;20533;-94
2021/06/16 01:20:10;;;;;;;1.20;1.10;;;25.40;72.30;;;;;;4977821;28;20452;-95
2021/06/16 01:22:42;;;;;;;1.03;0.93;;;25.40;72.30;;;;;;4978063;28;20448;-93
2021/06/16 01:25:18;;;;;;;1.00;0.80;;;25.40;72.30;;;;;;4977425;28;20553;-95
2021/06/16 01:27:46;;;;;;;0.90;0.80;;;25.40;72.30;;;;;;4977411;28;20508;-94
2021/06/16 01:30:14;;;;;;;1.40;1.10;;;25.40;72.30;;;;;;4976982;28;20599;-95
2021/06/16 01:32:41;;;;;;;1.40;1.00;;;25.40;72.20;;;;;;4977832;28;20462;-93
2021/06/16 01:35:09;;;;;;;1.10;0.93;;;25.40;72.20;;;;;;4977313;28;20806;-94
2021/06/16 01:37:35;;;;;;;1.30;1.00;;;25.40;72.20;;;;;;4977108;28;20482;-94
2021/06/16 01:40:03;;;;;;;1.60;1.30;;;25.40;72.20;;;;;;4977190;28;20537;-94
2021/06/16 01:42:31;;;;;;;1.10;0.90;;;25.40;72.20;;;;;;4977310;28;20540;-94
2021/06/16 01:45:01;;;;;;;1.53;1.13;;;25.30;72.10;;;;;;4977105;28;20445;-93
2021/06/16 01:47:29;;;;;;;1.63;1.00;;;25.40;72.20;;;;;;4976937;28;20499;-94
2021/06/16 01:49:59;;;;;;;1.10;1.00;;;25.30;72.10;;;;;;4976623;28;20489;-94
2021/06/16 01:52:27;;;;;;;1.13;1.03;;;25.30;72.10;;;;;;4977704;28;21022;-93
2021/06/16 01:54:56;;;;;;;1.10;1.00;;;25.40;72.20;;;;;;4977082;28;20924;-93
2021/06/16 01:57:24;;;;;;;1.10;0.97;;;25.30;72.10;;;;;;4976777;28;20450;-94
2021/06/16 01:59:56;;;;;;;1.40;1.00;;;25.30;72.10;;;;;;4977000;28;20822;-94
2021/06/16 02:02:24;;;;;;;1.13;1.03;;;25.30;72.90;;;;;;4976784;28;20475;-93
2021/06/16 02:04:51;;;;;;;1.37;1.17;;;25.30;72.10;;;;;;4976679;28;20463;-94
2021/06/16 02:10:52;;;;;;;1.03;0.90;;;25.30;72.10;;;;;;4979976;28;20497;-91
2021/06/16 02:13:25;;;;;;;1.10;0.90;;;25.30;72.20;;;;;;4990008;28;20432;-94
2021/06/16 02:15:57;;;;;;;1.27;1.00;;;25.30;72.20;;;;;;4985954;28;20447;-94
2021/06/16 02:18:35;;;;;;;1.20;1.10;;;25.30;72.20;;;;;;4976602;28;20927;-94
2021/06/16 02:21:02;;;;;;;1.20;1.03;;;25.30;72.10;;;;;;4976558;28;20455;-94
2021/06/16 02:23:29;;;;;;;1.20;1.10;;;25.30;72.10;;;;;;4976442;28;20476;-94
2021/06/16 02:25:57;;;;;;;1.20;1.00;;;25.30;72.10;;;;;;4976536;28;20811;-93
2021/06/16 02:28:24;;;;;;;1.13;1.03;;;25.40;72.20;;;;;;4976509;28;20787;-95
2021/06/16 02:30:51;;;;;;;1.30;1.00;;;25.30;72.10;;;;;;4976377;28;21001;-95
2021/06/16 02:33:18;;;;;;;1.77;1.50;;;25.30;72.10;;;;;;4976204;28;20527;-95
2021/06/16 02:35:47;;;;;;;1.27;1.10;;;25.30;72.10;;;;;;4976519;28;20943;-96
2021/06/16 02:38:19;;;;;;;1.50;1.27;;;25.40;72.20;;;;;;4976689;28;20554;-93
2021/06/16 02:40:46;;;;;;;1.13;1.00;;;25.40;72.20;;;;;;4976195;28;20972;-93
2021/06/16 02:43:14;;;;;;;1.00;0.80;;;25.30;72.10;;;;;;4976365;28;20448;-94
2021/06/16 02:45:43;;;;;;;1.10;1.00;;;25.30;72.10;;;;;;4976456;28;20463;-94
2021/06/16 02:48:12;;;;;;;1.40;1.00;;;25.30;72.10;;;;;;4976455;28;20798;-94
2021/06/16 02:50:41;;;;;;;1.00;0.80;;;25.30;72.10;;;;;;4976355;28;20837;-95
2021/06/16 02:53:17;;;;;;;1.30;1.03;;;25.30;72.10;;;;;;4976256;28;20457;-93
2021/06/16 02:55:45;;;;;;;1.20;1.10;;;25.30;72.20;;;;;;4976423;28;20527;-95
2021/06/16 02:58:12;;;;;;;1.77;1.00;;;25.30;72.20;;;;;;4976498;28;20442;-95
2021/06/16 03:00:39;;;;;;;1.00;0.90;;;25.30;72.10;;;;;;4976167;28;20483;-95
2021/06/16 03:03:08;;;;;;;1.20;1.10;;;25.30;72.20;;;;;;4976267;28;20960;-93
2021/06/16 03:05:37;;;;;;;1.17;1.07;;;25.30;72.10;;;;;;4976273;28;20440;-94
2021/06/16 03:08:05;;;;;;;1.10;0.90;;;25.30;72.10;;;;;;4976619;28;20474;-94
2021/06/16 03:10:35;;;;;;;1.20;0.90;;;25.30;72.10;;;;;;4975958;28;20488;-95
2021/06/16 03:13:03;;;;;;;1.30;1.17;;;25.30;72.10;;;;;;4976286;28;20559;-95
2021/06/16 03:15:31;;;;;;;1.33;1.23;;;25.30;72.10;;;;;;4975645;28;20461;-95
2021/06/16 03:17:59;;;;;;;1.30;1.20;;;25.30;72.10;;;;;;4975883;28;20944;-95
2021/06/16 03:20:29;;;;;;;1.50;1.27;;;25.40;72.20;;;;;;4975663;28;20936;-95
2021/06/16 03:22:57;;;;;;;1.70;0.93;;;25.40;72.20;;;;;;4976382;28;20539;-95
2021/06/16 03:25:25;;;;;;;1.30;1.20;;;25.30;72.10;;;;;;4976237;28;20986;-94
2021/06/16 03:27:53;;;;;;;1.10;1.00;;;25.40;72.20;;;;;;4976565;28;20452;-95
2021/06/16 03:30:22;;;;;;;1.27;1.17;;;25.30;72.00;;;;;;4976122;28;20501;-95
2021/06/16 03:32:51;;;;;;;2.70;1.23;;;25.30;72.10;;;;;;4975429;28;20800;-95
2021/06/16 03:35:18;;;;;;;1.20;1.10;;;25.30;72.10;;;;;;4976056;28;20458;-95
2021/06/16 03:37:46;;;;;;;1.30;1.13;;;25.40;72.20;;;;;;4976896;28;20489;-93
2021/06/16 03:40:16;;;;;;;1.30;1.20;;;25.40;72.20;;;;;;4977675;28;20463;-95
2021/06/16 03:42:44;;;;;;;2.03;1.40;;;25.30;72.10;;;;;;4976386;28;20512;-95
2021/06/16 03:45:13;;;;;;;1.23;1.13;;;25.30;73.00;;;;;;4976596;28;20444;-95
2021/06/16 03:47:44;;;;;;;1.30;1.00;;;25.30;72.10;;;;;;4978561;28;20451;-95
2021/06/16 03:50:16;;;;;;;1.20;1.10;;;25.40;72.20;;;;;;4978872;28;20985;-94
2021/06/16 03:52:44;;;;;;;1.60;1.03;;;25.30;72.00;;;;;;4976184;28;20928;-94
2021/06/16 03:55:12;;;;;;;1.13;1.03;;;25.30;72.00;;;;;;4975519;28;20455;-95
2021/06/16 03:57:40;;;;;;;2.73;1.53;;;25.30;72.00;;;;;;4958124;28;20447;-94
2021/06/16 04:00:08;;;;;;;1.17;1.07;;;25.40;72.10;;;;;;4975240;28;20833;-95
2021/06/16 04:02:37;;;;;;;1.10;1.00;;;25.30;72.00;;;;;;4975543;28;20451;-95
2021/06/16 04:05:06;;;;;;;1.50;1.20;;;25.30;72.00;;;;;;4975180;28;20463;-93
2021/06/16 04:07:33;;;;;;;1.40;1.30;;;25.30;72.00;;;;;;4975052;28;20479;-95
2021/06/16 04:10:00;;;;;;;1.47;1.10;;;25.30;72.00;;;;;;4975750;28;20454;-95
2021/06/16 04:12:28;;;;;;;1.23;1.13;;;25.30;72.20;;;;;;4975419;28;20969;-95
2021/06/16 04:14:55;;;;;;;1.30;1.20;;;25.30;72.00;;;;;;4975219;28;20487;-95
2021/06/16 04:17:23;;;;;;;1.17;1.07;;;25.30;72.00;;;;;;4975238;28;20460;-93
2021/06/16 04:19:53;;;;;;;1.37;1.10;;;25.30;72.00;;;;;;4975461;28;20453;-94
2021/06/16 04:22:20;;;;;;;1.40;1.10;;;25.40;72.10;;;;;;4975175;28;20789;-95
2021/06/16 04:24:48;;;;;;;1.50;1.20;;;25.30;72.10;;;;;;4975150;28;20457;-95
2021/06/16 04:27:15;;;;;;;1.20;1.10;;;25.30;72.00;;;;;;4976023;28;20458;-95
2021/06/16 04:29:42;;;;;;;1.17;1.07;;;25.40;72.10;;;;;;4975184;28;21009;-94
2021/06/16 04:32:10;;;;;;;1.30;1.20;;;25.30;72.10;;;;;;4994702;28;20538;-94
2021/06/16 04:34:37;;;;;;;1.10;1.00;;;25.30;72.00;;;;;;5002599;28;20508;-94
2021/06/16 04:37:06;;;;;;;1.37;1.27;;;25.40;72.10;;;;;;5002561;28;20479;-94
2021/06/16 04:39:33;;;;;;;1.20;1.10;;;25.20;71.90;;;;;;4994941;28;21046;-95
2021/06/16 04:42:00;;;;;;;1.30;1.10;;;25.20;72.00;;;;;;4983774;28;20453;-94
2021/06/16 04:44:27;;;;;;;1.37;1.27;;;25.20;72.00;;;;;;4983351;28;20530;-93
2021/06/16 04:46:53;;;;;;;1.30;1.20;;;25.20;72.00;;;;;;4980489;28;20464;-95
2021/06/16 04:49:21;;;;;;;1.43;1.33;;;25.30;72.10;;;;;;4979662;28;20447;-94
2021/06/16 04:51:48;;;;;;;2.50;1.33;;;25.20;72.90;;;;;;4979657;28;20483;-93
2021/06/16 04:54:16;;;;;;;1.43;1.20;;;25.40;72.20;;;;;;4978608;28;20459;-95
2021/06/16 04:56:43;;;;;;;1.30;1.20;;;25.20;72.10;;;;;;4978942;28;20444;-93
2021/06/16 04:59:10;;;;;;;1.63;1.10;;;25.20;72.10;;;;;;4978724;28;20776;-95
2021/06/16 05:01:38;;;;;;;1.27;1.17;;;25.40;72.30;;;;;;4977943;28;20478;-95
2021/06/16 05:04:06;;;;;;;1.30;1.20;;;25.30;72.20;;;;;;4978083;28;20802;-94
2021/06/16 05:06:33;;;;;;;1.97;1.43;;;25.20;72.10;;;;;;4978277;28;20458;-95
2021/06/16 05:09:00;;;;;;;1.30;1.20;;;25.30;72.20;;;;;;4978126;28;20460;-95
2021/06/16 05:11:28;;;;;;;1.70;1.60;;;25.20;72.10;;;;;;4978354;28;20488;-93
2021/06/16 05:13:55;;;;;;;1.20;1.10;;;25.20;72.10;;;;;;4977892;28;20455;-95
2021/06/16 05:16:22;;;;;;;1.53;1.40;;;25.20;72.20;;;;;;4978380;28;20474;-94
2021/06/16 05:18:49;;;;;;;1.77;1.43;;;25.20;72.20;;;;;;4978330;28;20448;-96
2021/06/16 05:21:16;;;;;;;1.50;1.40;;;25.20;72.20;;;;;;4978125;28;20456;-92
2021/06/16 05:23:44;;;;;;;1.27;1.17;;;25.20;72.20;;;;;;4977923;28;20449;-95
2021/06/16 05:26:11;;;;;;;1.50;1.40;;;25.20;72.20;;;;;;4984584;28;20432;-92
2021/06/16 05:28:39;;;;;;;1.20;1.10;;;25.40;73.20;;;;;;4989742;28;20559;-93
2021/06/16 05:31:06;;;;;;;1.30;1.20;;;25.20;72.20;;;;;;4987521;28;20570;-94
2021/06/16 05:33:33;;;;;;;2.00;1.90;;;25.20;72.20;;;;;;4978626;28;20537;-96
2021/06/16 05:36:00;;;;;;;1.37;1.27;;;25.40;72.50;;;;;;4979731;28;20562;-94
2021/06/16 05:38:27;;;;;;;1.40;1.30;;;25.20;72.30;;;;;;4979115;28;20460;-94
2021/06/16 05:40:54;;;;;;;1.33;1.23;;;25.20;72.40;;;;;;4978106;28;20457;-96
2021/06/16 05:43:21;;;;;;;1.30;1.20;;;25.20;72.40;;;;;;4978557;28;20458;-94
2021/06/16 05:45:49;;;;;;;1.30;1.20;;;25.20;72.40;;;;;;4979036;28;20448;-96
2021/06/16 05:48:16;;;;;;;1.40;1.30;;;25.30;72.60;;;;;;4979262;28;20459;-96
2021/06/16 05:50:43;;;;;;;1.43;1.33;;;25.20;72.50;;;;;;4978499;28;20952;-96
2021/06/16 05:53:11;;;;;;;1.20;1.10;;;25.20;72.50;;;;;;4978780;28;20456;-96
2021/06/16 05:55:38;;;;;;;1.53;1.20;;;25.30;72.60;;;;;;4978686;28;20445;-93
2021/06/16 05:58:05;;;;;;;1.80;1.70;;;25.20;72.50;;;;;;4978570;28;20547;-96
2021/06/16 06:00:32;;;;;;;1.60;1.50;;;25.20;72.50;;;;;;4978732;28;20481;-96
2021/06/16 06:03:01;;;;;;;1.43;1.33;;;25.20;72.60;;;;;;4981344;28;20453;-96
2021/06/16 06:05:28;;;;;;;1.57;1.47;;;25.20;72.60;;;;;;4980351;28;20447;-96
2021/06/16 06:07:56;;;;;;;1.83;1.73;;;25.20;72.70;;;;;;4979001;28;20482;-96
2021/06/16 06:10:23;;;;;;;2.60;1.70;;;25.20;72.70;;;;;;4961661;28;20455;-95
2021/06/16 06:12:50;;;;;;;1.60;1.50;;;25.20;72.70;;;;;;4978197;28;20556;-96
2021/06/16 06:15:18;;;;;;;1.70;1.60;;;25.20;72.80;;;;;;4981292;28;20668;-96
2021/06/16 06:17:45;;;;;;;1.57;1.47;;;25.30;72.90;;;;;;4978490;28;20807;-96
2021/06/16 06:20:14;;;;;;;1.43;1.33;;;25.30;72.90;;;;;;4978412;28;20954;-95
2021/06/16 06:22:41;;;;;;;1.37;1.27;;;25.20;72.80;;;;;;4977753;28;20445;-93
2021/06/16 06:25:10;;;;;;;1.87;1.43;;;25.20;72.90;;;;;;4978091;28;20440;-96
2021/06/16 06:27:38;;;;;;;1.30;1.20;;;25.20;72.90;;;;;;4977884;28;20448;-96
2021/06/16 06:30:05;;;;;;;1.30;1.20;;;25.40;73.10;;;;;;4977343;28;20442;-96
2021/06/16 06:32:32;;;;;;;1.93;1.83;;;25.20;73.00;;;;;;4977664;28;20494;-96
2021/06/16 06:35:00;;;;;;;1.30;1.20;;;25.20;73.00;;;;;;4978032;28;20448;-96
2021/06/16 06:37:28;;;;;;;1.63;1.53;;;25.20;73.00;;;;;;4977862;28;20475;-95
2021/06/16 06:39:55;;;;;;;1.53;1.43;;;25.20;73.00;;;;;;4978052;28;20440;-95
2021/06/16 06:42:21;;;;;;;1.73;1.63;;;25.20;73.10;;;;;;4977381;28;20538;-94
2021/06/16 06:44:48;;;;;;;2.17;1.80;;;25.20;73.10;;;;;;4977364;28;20792;-96
2021/06/16 06:47:15;;;;;;;1.33;1.23;;;25.20;73.10;;;;;;4978202;28;20778;-96
2021/06/16 06:49:42;;;;;;;1.70;1.60;;;25.30;73.20;;;;;;4978304;28;20443;-96
2021/06/16 06:52:11;;;;;;;1.67;1.57;;;25.20;74.00;;;;;;4981832;28;20483;-96
2021/06/16 06:54:39;;;;;;;1.80;1.70;;;25.40;73.20;;;;;;4977849;28;20459;-96
2021/06/16 06:57:07;;;;;;;1.83;1.73;;;25.20;73.10;;;;;;4978586;28;20481;-94
2021/06/16 06:59:34;;;;;;;1.30;1.20;;;25.20;73.00;;;;;;4976519;28;20447;-96
2021/06/16 07:02:01;;;;;;;1.43;1.33;;;25.20;73.00;;;;;;4977803;28;20507;-94
2021/06/16 07:04:28;;;;;;;1.50;1.40;;;25.20;73.00;;;;;;4979706;28;20444;-96
2021/06/16 07:06:55;;;;;;;1.37;1.27;;;25.20;73.00;;;;;;4985381;28;20516;-94
2021/06/16 07:09:23;;;;;;;1.20;1.10;;;25.20;73.00;;;;;;4982268;28;20451;-94
2021/06/16 07:11:52;;;;;;;1.30;1.20;;;25.20;72.90;;;;;;4962576;28;20483;-96
2021/06/16 07:14:19;;;;;;;1.40;1.30;;;25.40;73.10;;;;;;5008032;23;20585;-93
2021/06/16 07:16:46;;;;;;;1.30;1.20;;;25.20;72.90;;;;;;4997594;28;20444;-95
2021/06/16 07:19:13;;;;;;;1.40;1.30;;;25.20;72.90;;;;;;4995849;28;20919;-94
2021/06/16 07:21:40;;;;;;;1.40;1.30;;;25.30;73.00;;;;;;4998409;28;20462;-93
2021/06/16 07:24:07;;;;;;;1.23;1.13;;;25.20;72.90;;;;;;4995317;28;20541;-93
2021/06/16 07:26:34;;;;;;;1.27;1.17;;;25.20;72.80;;;;;;4994310;28;20520;-96
2021/06/16 07:29:02;;;;;;;1.30;1.20;;;25.40;73.00;;;;;;4995664;28;20456;-95
2021/06/16 07:31:29;;;;;;;1.30;1.20;;;25.40;73.00;;;;;;4995166;28;20837;-95
2021/06/16 07:33:56;;;;;;;1.33;1.03;;;25.30;73.80;;;;;;4995627;28;20510;-93
2021/06/16 07:36:23;;;;;;;1.40;1.30;;;25.30;72.90;;;;;;4994835;28;20481;-94
2021/06/16 07:38:50;;;;;;;1.10;1.00;;;25.20;72.80;;;;;;4995357;28;20444;-93
2021/06/16 07:41:17;;;;;;;1.30;1.20;;;25.30;72.80;;;;;;4995276;28;20446;-96
2021/06/16 07:43:44;;;;;;;1.30;1.20;;;25.30;72.80;;;;;;4995164;28;20957;-96
2021/06/16 07:46:13;;;;;;;1.40;1.30;;;25.30;72.80;;;;;;4994874;28;20463;-93
2021/06/16 07:48:40;;;;;;;1.30;1.20;;;25.30;72.80;;;;;;4995153;28;20430;-93
2021/06/16 07:51:06;;;;;;;1.10;1.00;;;25.30;72.80;;;;;;4997017;28;20446;-96
2021/06/16 07:53:33;;;;;;;1.27;1.17;;;25.30;72.80;;;;;;4995046;28;20533;-96
2021/06/16 07:56:00;;;;;;;1.70;1.30;;;25.30;72.70;;;;;;4995020;28;20934;-94
2021/06/16 07:58:27;;;;;;;1.40;1.23;;;25.30;72.70;;;;;;4994990;28;20450;-93
2021/06/16 08:00:54;;;;;;;1.27;1.17;;;25.30;72.70;;;;;;4994708;28;20455;-93
2021/06/16 08:03:22;;;;;;;1.23;1.07;;;25.30;72.70;;;;;;4994891;28;20486;-96
2021/06/16 08:05:50;;;;;;;1.23;1.00;;;25.30;73.60;;;;;;4996865;28;20469;-93
2021/06/16 08:08:18;;;;;;;1.20;1.07;;;25.30;72.70;;;;;;4998873;28;20536;-93
2021/06/16 08:10:45;;;;;;;1.50;1.40;;;25.30;72.70;;;;;;4998737;28;20448;-94
2021/06/16 08:13:13;;;;;;;2.40;1.37;;;25.30;72.80;;;;;;4998927;28;20483;-93
2021/06/16 08:15:40;;;;;;;1.47;1.37;;;25.30;72.80;;;;;;4998382;28;20475;-93
2021/06/16 08:18:08;;;;;;;1.47;1.37;;;25.30;72.80;;;;;;4998876;28;20443;-96
2021/06/16 08:20:36;;;;;;;1.20;1.10;;;25.30;72.80;;;;;;4998769;28;20553;-96
2021/06/16 08:23:06;;;;;;;1.93;1.10;;;25.30;72.80;;;;;;4998812;28;20446;-94
2021/06/16 08:25:33;;;;;;;1.50;1.20;;;25.20;72.70;;;;;;4998227;28;20939;-94
2021/06/16 08:27:59;;;;;;;1.50;1.40;;;25.30;72.80;;;;;;4998806;28;20447;-93
2021/06/16 08:30:26;;;;;;;1.20;1.10;;;25.30;72.80;;;;;;4998747;28;20456;-96
2021/06/16 08:32:53;;;;;;;1.20;1.10;;;25.30;72.80;;;;;;4998631;28;20490;-96
2021/06/16 08:35:20;;;;;;;1.43;1.33;;;25.20;72.80;;;;;;4998408;28;20465;-96
2021/06/16 08:37:49;;;;;;;1.20;1.10;;;25.20;72.70;;;;;;4998508;28;20464;-93
2021/06/16 08:40:17;;;;;;;1.00;0.90;;;25.30;73.70;;;;;;4998291;28;20461;-93
2021/06/16 08:42:46;;;;;;;1.30;1.20;;;25.30;72.80;;;;;;4998238;28;20546;-93
2021/06/16 08:45:14;;;;;;;1.30;1.20;;;25.30;72.80;;;;;;4999129;28;20464;-92
2021/06/16 08:47:42;;;;;;;1.30;1.20;;;25.30;72.80;;;;;;4998922;28;20537;-93
2021/06/16 08:50:11;;;;;;;1.10;1.00;;;25.30;72.80;;;;;;4998377;28;20463;-93
2021/06/16 08:52:38;;;;;;;1.20;1.10;;;25.30;72.90;;;;;;4997777;28;20474;-96
2021/06/16 08:55:09;;;;;;;1.20;1.10;;;25.20;72.80;;;;;;4998290;28;20813;-96
2021/06/16 08:57:37;;;;;;;1.37;1.27;;;25.30;72.90;;;;;;4998099;28;20475;-96
2021/06/16 09:00:05;;;;;;;1.50;1.30;;;25.40;73.00;;;;;;4998582;28;20931;-93
2021/06/16 09:02:32;;;;;;;1.60;1.50;;;25.30;72.90;;;;;;4998141;28;20453;-95
2021/06/16 09:04:58;;;;;;;1.20;1.10;;;25.40;73.10;;;;;;4998362;28;20933;-96
2021/06/16 09:07:27;;;;;;;1.43;1.33;;;25.30;73.80;;;;;;4997484;28;20827;-95
2021/06/16 09:10:09;;;;;;;1.63;1.53;;;25.30;73.00;;;;;;4998151;28;20513;-96
2021/06/16 09:12:38;;;;;;;1.20;1.10;;;25.30;73.00;;;;;;4997840;28;20526;-93
2021/06/16 09:15:12;;;;;;;1.40;1.30;;;25.30;73.00;;;;;;4998169;28;20483;-94
2021/06/16 09:17:39;;;;;;;1.40;1.30;;;25.30;73.10;;;;;;4997557;28;20934;-93
2021/06/16 09:20:07;;;;;;;1.30;1.13;;;25.40;73.20;;;;;;4997576;28;20440;-93
2021/06/16 09:22:36;;;;;;;1.50;1.37;;;25.30;73.20;;;;;;4998011;28;20539;-93
2021/06/16 09:25:06;;;;;;;1.33;1.23;;;25.30;73.10;;;;;;4997197;28;20821;-96
2021/06/16 09:27:46;;;;;;;1.40;1.30;;;25.30;73.10;;;;;;4997069;28;20477;-95
2021/06/16 09:30:33;;;;;;;2.23;1.27;;;25.30;73.10;;;;;;5006965;28;20442;-96
2021/06/16 09:33:06;;;;;;;1.30;1.20;;;25.30;73.10;;;;;;5021154;28;20472;-94
2021/06/16 09:35:35;;;;;;;1.60;1.50;;;25.30;73.30;;;;;;5021268;28;20502;-95
2021/06/16 09:38:03;;;;;;;1.47;1.37;;;25.30;73.30;;;;;;5016211;28;20447;-95
2021/06/16 09:40:32;;;;;;;1.20;1.10;;;25.30;73.30;;;;;;5002366;28;20464;-93
2021/06/16 09:43:02;;;;;;;1.60;1.50;;;25.40;73.40;;;;;;5001831;28;20472;-93
2021/06/16 09:45:46;;;;;;;1.30;1.20;;;25.30;74.20;;;;;;4999391;28;20439;-96
2021/06/16 09:48:27;;;;;;;1.40;1.30;;;25.30;73.30;;;;;;4999027;28;20562;-93
2021/06/16 09:51:09;;;;;;;1.50;1.40;;;25.30;73.40;;;;;;4997812;28;20549;-94
2021/06/16 09:53:36;;;;;;;1.20;1.10;;;25.30;73.40;;;;;;4998262;28;21016;-95
2021/06/16 09:56:18;;;;;;;1.40;1.30;;;25.40;73.50;;;;;;4997424;28;20452;-95
2021/06/16 09:58:54;;;;;;;1.20;1.07;;;25.30;73.40;;;;;;5000795;28;20550;-94
2021/06/16 10:01:41;;;;;;;1.30;1.20;;;25.30;73.50;;;;;;5002837;28;20764;-96
2021/06/16 10:04:09;;;;;;;1.40;1.30;;;25.40;73.60;;;;;;5008096;28;20427;-93
2021/06/16 10:06:35;;;;;;;1.57;1.47;;;25.30;73.50;;;;;;5000709;28;20472;-93
2021/06/16 10:09:08;;;;;;;1.43;1.33;;;25.40;73.60;;;;;;5000350;28;20467;-93
2021/06/16 10:11:35;;;;;;;1.47;1.37;;;25.30;74.40;;;;;;4998775;28;20448;-93
2021/06/16 10:14:04;;;;;;;1.40;1.30;;;25.30;73.50;;;;;;4997704;28;20485;-96
2021/06/16 10:16:31;;;;;;;1.73;1.50;;;25.30;73.60;;;;;;4998451;28;20529;-96
2021/06/16 10:21:40;;;;;;;1.63;1.53;;;25.30;73.60;;;;;;5001367;28;20518;-93
2021/06/16 10:24:08;;;;;;;1.63;1.53;;;25.30;73.60;;;;;;5006963;28;20472;-96
2021/06/16 10:26:36;;;;;;;1.60;1.50;;;25.30;73.60;;;;;;5005975;28;20440;-94
2021/06/16 10:29:11;;;;;;;1.50;1.40;;;25.30;73.70;;;;;;4995640;28;20456;-93
2021/06/16 10:31:40;;;;;;;1.40;1.30;;;25.30;73.70;;;;;;4996793;28;20454;-95
2021/06/16 10:34:08;;;;;;;1.40;1.30;;;25.30;73.70;;;;;;4996473;28;20986;-96
2021/06/16 10:36:36;;;;;;;1.50;1.40;;;25.30;73.70;;;;;;4996258;28;20554;-94
2021/06/16 10:39:14;;;;;;;1.40;1.30;;;25.30;74.60;;;;;;4995867;28;20538;-93
2021/06/16 10:44:40;;;;;;;1.30;1.20;;;25.30;73.80;;;;;;4994651;28;20490;-96
2021/06/16 10:47:08;;;;;;;1.60;1.50;;;25.30;73.80;;;;;;4996232;28;20454;-96
2021/06/16 10:49:52;;;;;;;1.60;1.50;;;25.30;73.80;;;;;;4998296;28;20535;-93
2021/06/16 10:52:21;;;;;;;1.50;1.40;;;25.30;73.80;;;;;;4995651;28;20452;-96
2021/06/16 10:54:57;;;;;;;1.67;1.57;;;25.30;73.80;;;;;;5002053;28;20502;-93
2021/06/16 10:57:24;;;;;;;1.40;1.30;;;25.30;73.80;;;;;;4995965;28;20517;-93
2021/06/16 11:00:04;;;;;;;1.50;1.40;;;25.30;73.90;;;;;;4996254;28;20463;-94
2021/06/16 11:03:08;;;;;;;1.50;1.40;;;25.40;74.00;;;;;;4995989;28;20450;-93
2021/06/16 11:05:47;;;;;;;1.77;1.67;;;25.30;73.90;;;;;;4997240;28;20453;-96
2021/06/16 11:08:54;;;;;;;1.53;1.40;;;25.40;74.10;;;;;;4996709;28;20463;-93
2021/06/16 11:11:23;;;;;;;1.53;1.43;;;25.30;73.90;;;;;;4996102;28;20440;-93
2021/06/16 11:13:51;;;;;;;1.57;1.47;;;25.30;74.10;;;;;;4996771;28;20487;-93
2021/06/16 11:16:42;;;;;;;1.53;1.43;;;25.30;74.00;;;;;;4996298;28;20458;-96
2021/06/16 11:19:28;;;;;;;1.50;1.40;;;25.40;74.10;;;;;;4996571;28;20538;-93
2021/06/16 11:21:58;;;;;;;1.90;1.80;;;25.40;74.20;;;;;;4995810;28;20446;-93
2021/06/16 11:24:59;;;;;;;1.77;1.67;;;25.30;74.20;;;;;;4995469;28;20446;-93
2021/06/16 11:27:59;;;;;;;1.93;1.83;;;25.40;74.20;;;;;;5009344;28;20448;-93
2021/06/16 11:30:31;;;;;;;1.87;1.77;;;25.40;74.20;;;;;;4997116;28;20454;-93
2021/06/16 11:33:34;;;;;;;1.70;1.60;;;25.40;74.30;;;;;;4996321;28;20488;-96
2021/06/16 11:36:04;;;;;;;1.90;1.80;;;25.40;74.20;;;;;;5003271;28;20470;-96
2021/06/16 11:38:35;;;;;;;1.80;1.70;;;25.40;74.40;;;;;;4997677;28;20946;-96
2021/06/16 11:41:16;;;;;;;1.50;1.40;;;25.40;74.40;;;;;;5000462;28;20506;-96
2021/06/16 11:43:45;;;;;;;1.90;1.80;;;25.40;74.30;;;;;;5001058;28;20466;-96
2021/06/16 11:46:15;;;;;;;1.80;1.70;;;25.40;74.30;;;;;;5000038;28;20443;-96
2021/06/16 11:48:47;;;;;;;1.60;1.50;;;25.40;74.30;;;;;;4998317;28;20462;-96
2021/06/16 11:51:26;;;;;;;1.77;1.67;;;25.40;74.30;;;;;;5000396;28;20447;-95
2021/06/16 11:54:02;;;;;;;2.20;2.10;;;25.40;74.30;;;;;;4999719;28;20487;-96
2021/06/16 11:56:29;;;;;;;1.43;1.33;;;25.40;74.30;;;;;;5002886;28;20454;-93
2021/06/16 11:58:57;;;;;;;1.60;1.50;;;25.40;74.40;;;;;;5000839;28;20945;-93
2021/06/16 12:01:26;;;;;;;2.10;1.97;;;25.30;74.30;;;;;;4999623;28;20445;-94
2021/06/16 12:04:01;;;;;;;1.60;1.50;;;25.40;74.30;;;;;;4999128;28;20452;-96
2021/06/16 12:06:28;;;;;;;1.87;1.77;;;25.40;74.30;;;;;;4999215;28;20969;-93
2021/06/16 12:08:58;;;;;;;2.00;1.90;;;25.40;74.40;;;;;;4999796;28;20451;-94
2021/06/16 12:11:26;;;;;;;3.00;2.10;;;25.40;74.40;;;;;;4999660;28;20501;-93
2021/06/16 12:14:01;;;;;;;2.03;1.90;;;25.40;74.40;;;;;;4999252;28;20485;-96
2021/06/16 12:16:31;;;;;;;1.90;1.80;;;25.40;74.40;;;;;;4999866;28;20450;-96
2021/06/16 12:19:17;;;;;;;2.10;2.00;;;25.50;74.60;;;;;;4999128;28;20953;-95
2021/06/16 12:21:59;;;;;;;1.70;1.60;;;25.50;74.50;;;;;;4999920;28;20451;-95
2021/06/16 12:24:28;;;;;;;2.03;1.93;;;25.40;74.50;;;;;;4999204;28;20458;-95
2021/06/16 12:27:12;;;;;;;1.90;1.80;;;25.40;74.50;;;;;;4998657;28;20451;-93
2021/06/16 12:29:46;;;;;;;1.70;1.60;;;25.50;74.60;;;;;;4998659;28;20445;-96
2021/06/16 12:32:14;;;;;;;2.00;1.90;;;25.40;74.60;;;;;;4998145;28;20440;-93
2021/06/16 12:35:01;;;;;;;2.10;2.00;;;25.40;75.50;;;;;;4998462;28;20478;-93
2021/06/16 12:37:28;;;;;;;1.70;1.60;;;25.40;74.60;;;;;;4999653;28;20497;-92
2021/06/16 12:39:59;;;;;;;1.67;1.57;;;25.40;74.60;;;;;;4998816;28;20462;-93
2021/06/16 12:42:40;;;;;;;2.00;1.90;;;25.40;74.70;;;;;;4999148;28;20439;-93
2021/06/16 12:45:29;;;;;;;2.00;1.90;;;25.50;74.70;;;;;;4998670;28;20451;-93
2021/06/16 12:47:56;;;;;;;2.10;2.00;;;25.50;74.70;;;;;;4998677;28;20452;-96
2021/06/16 12:50:37;;;;;;;2.20;2.10;;;25.50;74.80;;;;;;4998942;28;20451;-95
2021/06/16 12:53:15;;;;;;;1.93;1.83;;;25.50;74.80;;;;;;4998788;28;20486;-94
2021/06/16 12:55:46;;;;;;;2.37;2.27;;;25.50;74.80;;;;;;4999394;28;20477;-95
2021/06/16 12:58:13;;;;;;;1.90;1.80;;;25.50;74.90;;;;;;4998300;28;20530;-96
2021/06/16 13:00:40;;;;;;;2.23;2.13;;;25.50;74.90;;;;;;4998137;28;20489;-95
2021/06/16 13:03:12;;;;;;;1.53;1.43;;;25.50;74.90;;;;;;4998579;28;20463;-96
2021/06/16 13:05:43;;;;;;;2.07;1.97;;;25.50;74.90;;;;;;5000116;28;20543;-96
2021/06/16 13:08:10;;;;;;;2.10;2.00;;;25.50;74.90;;;;;;4997778;28;20436;-96
2021/06/16 13:10:38;;;;;;;1.90;1.80;;;25.50;74.90;;;;;;4998809;28;20530;-93